sensor_id;sensor_type;location;lat;lon;timestamp;temperature;humidity
8563;DHT22;16392;52.508;13.468;2023-08-17T00:01:15;20.30;99.90
8563;DHT22;16392;52.508;13.468;2023-08-17T00:03:41;20.30;99.90
8563;DHT22;16392;52.508;13.468;2023-08-17T00:06:08;20.30;99.90
8563;DHT22;16392;52.508;13.468;2023-08-17T00:08:35;20.30;99.90
8563;DHT22;16392;52.508;13.468;2023-08-17T00:11:03;20.20;99.90
8563;DHT22;16392;52.508;13.468;2023-08-17T00:13:30;20.20;99.90
8563;DHT22;16392;52.508;13.468;2023-08-17T00:15:56;20.10;99.90
8563;DHT22;16392;52.508;13.468;2023-08-17T00:18:23;20.20;99.90
8563;DHT22;16392;52.508;13.468;2023-08-17T00:20:50;20.10;99.90
8563;DHT22;16392;52.508;13.468;2023-08-17T00:23:16;20.10;99.90
8563;DHT22;16392;52.508;13.468;2023-08-17T00:25:43;20.10;99.90
8563;DHT22;16392;52.508;13.468;2023-08-17T00:28:11;20.00;99.90
8563;DHT22;16392;52.508;13.468;2023-08-17T00:30:37;20.00;99.90
8563;DHT22;16392;52.508;13.468;2023-08-17T00:33:04;19.90;99.90
8563;DHT22;16392;52.508;13.468;2023-08-17T00:35:31;19.90;99.90
8563;DHT22;16392;52.508;13.468;2023-08-17T00:37:58;19.90;99.90
8563;DHT22;16392;52.508;13.468;2023-08-17T00:40:24;19.90;99.90
8563;DHT22;16392;52.508;13.468;2023-08-17T00:42:51;19.90;99.90
8563;DHT22;16392;52.508;13.468;2023-08-17T00:45:19;19.80;99.90
8563;DHT22;16392;52.508;13.468;2023-08-17T00:47:45;19.80;99.90
8563;DHT22;16392;52.508;13.468;2023-08-17T00:50:13;19.70;99.90
8563;DHT22;16392;52.508;13.468;2023-08-17T00:52:40;19.70;99.90
8563;DHT22;16392;52.508;13.468;2023-08-17T00:55:08;19.70;99.90
8563;DHT22;16392;52.508;13.468;2023-08-17T00:57:36;19.70;99.90
8563;DHT22;16392;52.508;13.468;2023-08-17T01:00:04;19.70;99.90
8563;DHT22;16392;52.508;13.468;2023-08-17T01:02:34;19.60;99.90
8563;DHT22;16392;52.508;13.468;2023-08-17T01:05:01;19.60;99.90
8563;DHT22;16392;52.508;13.468;2023-08-17T01:07:28;19.60;99.90
8563;DHT22;16392;52.508;13.468;2023-08-17T01:09:55;19.60;99.90
8563;DHT22;16392;52.508;13.468;2023-08-17T01:12:27;19.60;99.90
8563;DHT22;16392;52.508;13.468;2023-08-17T01:15:01;19.60;99.90
8563;DHT22;16392;52.508;13.468;2023-08-17T01:17:32;19.60;99.90
8563;DHT22;16392;52.508;13.468;2023-08-17T01:20:02;19.60;99.90
8563;DHT22;16392;52.508;13.468;2023-08-17T01:22:32;19.60;99.90
8563;DHT22;16392;52.508;13.468;2023-08-17T01:25:02;19.60;99.90
8563;DHT22;16392;52.508;13.468;2023-08-17T01:27:36;19.50;99.90
8563;DHT22;16392;52.508;13.468;2023-08-17T01:30:04;19.50;99.90
8563;DHT22;16392;52.508;13.468;2023-08-17T01:32:37;19.50;99.90
8563;DHT22;16392;52.508;13.468;2023-08-17T01:35:21;19.50;99.90
8563;DHT22;16392;52.508;13.468;2023-08-17T01:37:53;19.40;99.90
8563;DHT22;16392;52.508;13.468;2023-08-17T01:40:24;19.50;99.90
8563;DHT22;16392;52.508;13.468;2023-08-17T01:42:52;19.40;99.90
8563;DHT22;16392;52.508;13.468;2023-08-17T01:45:19;19.40;99.90
8563;DHT22;16392;52.508;13.468;2023-08-17T01:47:46;19.30;99.90
8563;DHT22;16392;52.508;13.468;2023-08-17T01:50:12;19.30;99.90
8563;DHT22;16392;52.508;13.468;2023-08-17T01:52:39;19.30;99.90
8563;DHT22;16392;52.508;13.468;2023-08-17T01:55:06;19.20;99.90
8563;DHT22;16392;52.508;13.468;2023-08-17T01:57:35;19.20;99.90
8563;DHT22;16392;52.508;13.468;2023-08-17T02:00:03;19.20;99.90
8563;DHT22;16392;52.508;13.468;2023-08-17T02:02:30;19.20;99.90
8563;DHT22;16392;52.508;13.468;2023-08-17T02:04:57;19.20;99.90
8563;DHT22;16392;52.508;13.468;2023-08-17T02:07:23;19.20;99.90
8563;DHT22;16392;52.508;13.468;2023-08-17T02:09:50;19.20;99.90
8563;DHT22;16392;52.508;13.468;2023-08-17T02:12:16;19.10;99.90
8563;DHT22;16392;52.508;13.468;2023-08-17T02:14:44;19.10;99.90
8563;DHT22;16392;52.508;13.468;2023-08-17T02:17:11;19.10;99.90
8563;DHT22;16392;52.508;13.468;2023-08-17T02:19:37;19.00;99.90
8563;DHT22;16392;52.508;13.468;2023-08-17T02:22:04;19.00;99.90
8563;DHT22;16392;52.508;13.468;2023-08-17T02:24:31;19.10;99.90
8563;DHT22;16392;52.508;13.468;2023-08-17T02:26:57;19.00;99.90
8563;DHT22;16392;52.508;13.468;2023-08-17T02:29:24;19.00;99.90
8563;DHT22;16392;52.508;13.468;2023-08-17T02:31:52;19.00;99.90
8563;DHT22;16392;52.508;13.468;2023-08-17T02:34:19;19.00;99.90
8563;DHT22;16392;52.508;13.468;2023-08-17T02:36:46;19.00;99.90
8563;DHT22;16392;52.508;13.468;2023-08-17T02:39:12;18.90;99.90
8563;DHT22;16392;52.508;13.468;2023-08-17T02:41:39;19.00;99.90
8563;DHT22;16392;52.508;13.468;2023-08-17T02:44:06;18.90;99.90
8563;DHT22;16392;52.508;13.468;2023-08-17T02:46:32;18.90;99.90
8563;DHT22;16392;52.508;13.468;2023-08-17T02:49:00;18.90;99.90
8563;DHT22;16392;52.508;13.468;2023-08-17T02:51:27;18.90;99.90
8563;DHT22;16392;52.508;13.468;2023-08-17T02:53:53;18.90;99.90
8563;DHT22;16392;52.508;13.468;2023-08-17T02:56:20;18.90;99.90
8563;DHT22;16392;52.508;13.468;2023-08-17T02:58:47;18.90;99.90
8563;DHT22;16392;52.508;13.468;2023-08-17T03:01:13;18.90;99.90
8563;DHT22;16392;52.508;13.468;2023-08-17T03:03:40;18.90;99.90
8563;DHT22;16392;52.508;13.468;2023-08-17T03:06:08;18.80;99.90
8563;DHT22;16392;52.508;13.468;2023-08-17T03:08:34;18.80;99.90
8563;DHT22;16392;52.508;13.468;2023-08-17T03:11:01;18.80;99.90
8563;DHT22;16392;52.508;13.468;2023-08-17T03:13:28;18.70;99.90
8563;DHT22;16392;52.508;13.468;2023-08-17T03:15:54;18.80;99.90
8563;DHT22;16392;52.508;13.468;2023-08-17T03:18:21;18.80;99.90
8563;DHT22;16392;52.508;13.468;2023-08-17T03:20:47;18.70;99.90
8563;DHT22;16392;52.508;13.468;2023-08-17T03:23:15;18.80;99.90
8563;DHT22;16392;52.508;13.468;2023-08-17T03:25:42;18.70;99.90
8563;DHT22;16392;52.508;13.468;2023-08-17T03:28:09;18.80;99.90
8563;DHT22;16392;52.508;13.468;2023-08-17T03:30:35;18.80;99.90
8563;DHT22;16392;52.508;13.468;2023-08-17T03:33:02;18.80;99.90
8563;DHT22;16392;52.508;13.468;2023-08-17T03:35:29;18.80;99.90
8563;DHT22;16392;52.508;13.468;2023-08-17T03:37:55;18.80;99.90
8563;DHT22;16392;52.508;13.468;2023-08-17T03:40:23;18.90;99.90
8563;DHT22;16392;52.508;13.468;2023-08-17T03:42:49;18.80;99.90
8563;DHT22;16392;52.508;13.468;2023-08-17T03:45:17;18.90;99.90
8563;DHT22;16392;52.508;13.468;2023-08-17T03:47:44;18.90;99.90
8563;DHT22;16392;52.508;13.468;2023-08-17T03:50:11;18.90;99.90
8563;DHT22;16392;52.508;13.468;2023-08-17T03:52:38;18.90;99.90
8563;DHT22;16392;52.508;13.468;2023-08-17T03:55:05;18.90;99.90
8563;DHT22;16392;52.508;13.468;2023-08-17T03:57:34;18.90;99.90
8563;DHT22;16392;52.508;13.468;2023-08-17T04:00:00;18.90;99.90
8563;DHT22;16392;52.508;13.468;2023-08-17T04:02:27;18.90;99.90
8563;DHT22;16392;52.508;13.468;2023-08-17T04:04:54;18.90;99.90
8563;DHT22;16392;52.508;13.468;2023-08-17T04:07:21;19.00;99.90
8563;DHT22;16392;52.508;13.468;2023-08-17T04:09:48;19.00;99.90
8563;DHT22;16392;52.508;13.468;2023-08-17T04:12:14;19.00;99.90
8563;DHT22;16392;52.508;13.468;2023-08-17T04:14:42;18.90;99.90
8563;DHT22;16392;52.508;13.468;2023-08-17T04:17:09;19.00;99.90
8563;DHT22;16392;52.508;13.468;2023-08-17T04:19:35;19.10;99.90
8563;DHT22;16392;52.508;13.468;2023-08-17T04:22:02;19.10;99.90
8563;DHT22;16392;52.508;13.468;2023-08-17T04:24:29;19.20;99.90
8563;DHT22;16392;52.508;13.468;2023-08-17T04:26:56;19.20;99.90
8563;DHT22;16392;52.508;13.468;2023-08-17T04:29:22;19.30;99.90
8563;DHT22;16392;52.508;13.468;2023-08-17T04:31:51;19.40;99.90
8563;DHT22;16392;52.508;13.468;2023-08-17T04:34:17;19.50;99.90
8563;DHT22;16392;52.508;13.468;2023-08-17T04:36:44;19.60;99.90
8563;DHT22;16392;52.508;13.468;2023-08-17T04:39:11;19.70;99.90
8563;DHT22;16392;52.508;13.468;2023-08-17T04:41:38;19.80;99.90
8563;DHT22;16392;52.508;13.468;2023-08-17T04:44:05;19.70;99.90
8563;DHT22;16392;52.508;13.468;2023-08-17T04:46:31;19.60;99.90
8563;DHT22;16392;52.508;13.468;2023-08-17T04:48:59;19.80;99.90
8563;DHT22;16392;52.508;13.468;2023-08-17T04:51:26;20.10;99.90
8563;DHT22;16392;52.508;13.468;2023-08-17T04:53:53;20.40;99.90
8563;DHT22;16392;52.508;13.468;2023-08-17T04:56:20;20.60;99.90
8563;DHT22;16392;52.508;13.468;2023-08-17T04:58:47;20.70;99.90
8563;DHT22;16392;52.508;13.468;2023-08-17T05:01:13;20.70;99.90
8563;DHT22;16392;52.508;13.468;2023-08-17T05:03:40;20.40;99.90
8563;DHT22;16392;52.508;13.468;2023-08-17T05:06:08;20.20;99.90
8563;DHT22;16392;52.508;13.468;2023-08-17T05:08:35;20.40;99.90
8563;DHT22;16392;52.508;13.468;2023-08-17T05:11:01;20.60;99.90
8563;DHT22;16392;52.508;13.468;2023-08-17T05:13:28;20.50;99.90
8563;DHT22;16392;52.508;13.468;2023-08-17T05:15:54;20.60;99.90
8563;DHT22;16392;52.508;13.468;2023-08-17T05:18:21;20.70;99.90
8563;DHT22;16392;52.508;13.468;2023-08-17T05:20:47;20.90;99.90
8563;DHT22;16392;52.508;13.468;2023-08-17T05:23:15;21.00;99.90
8563;DHT22;16392;52.508;13.468;2023-08-17T05:25:45;21.20;99.90
8563;DHT22;16392;52.508;13.468;2023-08-17T05:28:11;21.20;99.90
8563;DHT22;16392;52.508;13.468;2023-08-17T05:30:38;21.60;99.90
8563;DHT22;16392;52.508;13.468;2023-08-17T05:33:05;21.80;52.20
8563;DHT22;16392;52.508;13.468;2023-08-17T05:35:32;21.70;38.40
8563;DHT22;16392;52.508;13.468;2023-08-17T05:37:58;21.90;1.00
8563;DHT22;16392;52.508;13.468;2023-08-17T05:40:26;22.10;1.00
8563;DHT22;16392;52.508;13.468;2023-08-17T05:42:53;22.40;1.00
8563;DHT22;16392;52.508;13.468;2023-08-17T05:45:19;22.20;1.00
8563;DHT22;16392;52.508;13.468;2023-08-17T05:47:46;21.90;1.00
8563;DHT22;16392;52.508;13.468;2023-08-17T05:50:13;22.10;1.00
8563;DHT22;16392;52.508;13.468;2023-08-17T05:52:40;22.30;1.00
8563;DHT22;16392;52.508;13.468;2023-08-17T05:55:07;22.00;1.00
8563;DHT22;16392;52.508;13.468;2023-08-17T05:57:35;21.60;1.00
8563;DHT22;16392;52.508;13.468;2023-08-17T06:00:02;21.40;18.80
8563;DHT22;16392;52.508;13.468;2023-08-17T06:02:29;21.30;34.90
8563;DHT22;16392;52.508;13.468;2023-08-17T06:04:56;21.00;92.40
8563;DHT22;16392;52.508;13.468;2023-08-17T06:07:22;20.90;99.90
8563;DHT22;16392;52.508;13.468;2023-08-17T06:09:49;20.80;99.90
8563;DHT22;16392;52.508;13.468;2023-08-17T06:12:16;21.00;99.90
8563;DHT22;16392;52.508;13.468;2023-08-17T06:14:45;21.00;99.90
8563;DHT22;16392;52.508;13.468;2023-08-17T06:17:12;20.80;99.90
8563;DHT22;16392;52.508;13.468;2023-08-17T06:19:38;20.70;99.90
8563;DHT22;16392;52.508;13.468;2023-08-17T06:22:05;20.60;99.90
8563;DHT22;16392;52.508;13.468;2023-08-17T06:24:32;20.50;99.90
8563;DHT22;16392;52.508;13.468;2023-08-17T06:26:59;20.50;99.90
8563;DHT22;16392;52.508;13.468;2023-08-17T06:29:25;20.40;99.90
8563;DHT22;16392;52.508;13.468;2023-08-17T06:31:53;20.30;99.90
8563;DHT22;16392;52.508;13.468;2023-08-17T06:34:20;20.30;99.90
8563;DHT22;16392;52.508;13.468;2023-08-17T06:36:57;20.30;99.90
8563;DHT22;16392;52.508;13.468;2023-08-17T06:39:24;20.30;99.90
8563;DHT22;16392;52.508;13.468;2023-08-17T06:41:51;20.20;99.90
8563;DHT22;16392;52.508;13.468;2023-08-17T06:44:17;20.20;99.90
8563;DHT22;16392;52.508;13.468;2023-08-17T06:46:44;20.40;99.90
8563;DHT22;16392;52.508;13.468;2023-08-17T06:49:12;20.60;99.90
8563;DHT22;16392;52.508;13.468;2023-08-17T06:51:39;20.90;99.90
8563;DHT22;16392;52.508;13.468;2023-08-17T06:54:07;21.10;99.90
8563;DHT22;16392;52.508;13.468;2023-08-17T06:56:34;21.20;99.90
8563;DHT22;16392;52.508;13.468;2023-08-17T06:59:00;21.40;99.90
8563;DHT22;16392;52.508;13.468;2023-08-17T07:01:28;21.60;99.90
8563;DHT22;16392;52.508;13.468;2023-08-17T07:03:55;21.40;99.90
8563;DHT22;16392;52.508;13.468;2023-08-17T07:06:24;21.40;99.90
8563;DHT22;16392;52.508;13.468;2023-08-17T07:08:50;21.60;99.90
8563;DHT22;16392;52.508;13.468;2023-08-17T07:11:18;21.90;92.90
8563;DHT22;16392;52.508;13.468;2023-08-17T07:13:44;22.00;63.00
8563;DHT22;16392;52.508;13.468;2023-08-17T07:16:11;22.30;1.00
8563;DHT22;16392;52.508;13.468;2023-08-17T07:18:37;22.50;1.00
8563;DHT22;16392;52.508;13.468;2023-08-17T07:21:04;22.40;1.00
8563;DHT22;16392;52.508;13.468;2023-08-17T07:23:32;22.40;1.00
8563;DHT22;16392;52.508;13.468;2023-08-17T07:25:59;22.30;1.00
8563;DHT22;16392;52.508;13.468;2023-08-17T07:28:25;22.30;1.00
8563;DHT22;16392;52.508;13.468;2023-08-17T07:30:52;22.20;1.00
8563;DHT22;16392;52.508;13.468;2023-08-17T07:33:19;22.10;8.70
8563;DHT22;16392;52.508;13.468;2023-08-17T07:35:46;22.00;14.90
8563;DHT22;16392;52.508;13.468;2023-08-17T07:38:13;21.90;49.60
8563;DHT22;16392;52.508;13.468;2023-08-17T07:40:41;21.90;69.60
8563;DHT22;16392;52.508;13.468;2023-08-17T07:43:08;21.70;93.80
8563;DHT22;16392;52.508;13.468;2023-08-17T07:45:35;21.60;99.90
8563;DHT22;16392;52.508;13.468;2023-08-17T07:48:01;21.60;99.90
8563;DHT22;16392;52.508;13.468;2023-08-17T07:50:28;21.70;99.90
8563;DHT22;16392;52.508;13.468;2023-08-17T07:52:54;21.60;99.90
8563;DHT22;16392;52.508;13.468;2023-08-17T07:55:21;21.80;99.90
8563;DHT22;16392;52.508;13.468;2023-08-17T07:57:49;21.90;97.20
8563;DHT22;16392;52.508;13.468;2023-08-17T08:00:17;21.90;99.90
8563;DHT22;16392;52.508;13.468;2023-08-17T08:02:45;22.10;99.90
8563;DHT22;16392;52.508;13.468;2023-08-17T08:05:12;22.20;70.00
8563;DHT22;16392;52.508;13.468;2023-08-17T08:07:39;22.20;87.20
8563;DHT22;16392;52.508;13.468;2023-08-17T08:10:06;22.20;88.50
8563;DHT22;16392;52.508;13.468;2023-08-17T08:12:33;22.20;99.90
8563;DHT22;16392;52.508;13.468;2023-08-17T08:15:01;22.20;99.90
8563;DHT22;16392;52.508;13.468;2023-08-17T08:17:28;22.40;93.40
8563;DHT22;16392;52.508;13.468;2023-08-17T08:19:55;22.50;68.70
8563;DHT22;16392;52.508;13.468;2023-08-17T08:22:22;22.40;99.90
8563;DHT22;16392;52.508;13.468;2023-08-17T08:24:49;22.40;99.90
8563;DHT22;16392;52.508;13.468;2023-08-17T08:27:16;22.90;32.10
8563;DHT22;16392;52.508;13.468;2023-08-17T08:29:42;23.10;1.00
8563;DHT22;16392;52.508;13.468;2023-08-17T08:32:10;23.20;1.00
8563;DHT22;16392;52.508;13.468;2023-08-17T08:34:37;23.40;1.00
8563;DHT22;16392;52.508;13.468;2023-08-17T08:37:03;23.60;1.00
8563;DHT22;16392;52.508;13.468;2023-08-17T08:39:30;23.90;1.00
8563;DHT22;16392;52.508;13.468;2023-08-17T08:41:57;23.80;1.00
8563;DHT22;16392;52.508;13.468;2023-08-17T08:44:24;23.80;1.00
8563;DHT22;16392;52.508;13.468;2023-08-17T08:46:54;23.70;1.00
8563;DHT22;16392;52.508;13.468;2023-08-17T08:49:23;23.60;1.00
8563;DHT22;16392;52.508;13.468;2023-08-17T08:51:51;23.30;1.00
8563;DHT22;16392;52.508;13.468;2023-08-17T08:54:21;23.30;1.00
8563;DHT22;16392;52.508;13.468;2023-08-17T08:56:51;23.00;53.60
8563;DHT22;16392;52.508;13.468;2023-08-17T08:59:20;22.80;94.40
8563;DHT22;16392;52.508;13.468;2023-08-17T09:01:47;22.80;99.90
8563;DHT22;16392;52.508;13.468;2023-08-17T09:04:14;22.90;99.90
8563;DHT22;16392;52.508;13.468;2023-08-17T09:06:43;22.40;99.90
8563;DHT22;16392;52.508;13.468;2023-08-17T09:09:10;22.40;99.90
8563;DHT22;16392;52.508;13.468;2023-08-17T09:11:38;22.40;99.90
8563;DHT22;16392;52.508;13.468;2023-08-17T09:14:06;22.20;99.90
8563;DHT22;16392;52.508;13.468;2023-08-17T09:16:40;22.00;99.90
8563;DHT22;16392;52.508;13.468;2023-08-17T09:19:07;22.00;99.90
8563;DHT22;16392;52.508;13.468;2023-08-17T09:21:35;22.00;99.90
8563;DHT22;16392;52.508;13.468;2023-08-17T09:24:04;22.10;99.90
8563;DHT22;16392;52.508;13.468;2023-08-17T09:26:31;22.20;99.90
8563;DHT22;16392;52.508;13.468;2023-08-17T09:28:59;22.30;99.90
8563;DHT22;16392;52.508;13.468;2023-08-17T09:31:30;22.40;99.90
8563;DHT22;16392;52.508;13.468;2023-08-17T09:33:57;22.60;99.90
8563;DHT22;16392;52.508;13.468;2023-08-17T09:36:25;23.00;99.90
8563;DHT22;16392;52.508;13.468;2023-08-17T09:38:52;23.60;99.90
8563;DHT22;16392;52.508;13.468;2023-08-17T09:41:22;24.20;82.50
8563;DHT22;16392;52.508;13.468;2023-08-17T09:43:49;24.70;18.70
8563;DHT22;16392;52.508;13.468;2023-08-17T09:46:16;25.20;1.00
8563;DHT22;16392;52.508;13.468;2023-08-17T09:48:43;25.10;1.00
8563;DHT22;16392;52.508;13.468;2023-08-17T09:51:10;25.30;1.00
8563;DHT22;16392;52.508;13.468;2023-08-17T09:53:41;25.20;1.00
8563;DHT22;16392;52.508;13.468;2023-08-17T09:56:09;25.10;1.00
8563;DHT22;16392;52.508;13.468;2023-08-17T09:58:38;24.40;1.00
8563;DHT22;16392;52.508;13.468;2023-08-17T10:01:05;24.00;1.60
8563;DHT22;16392;52.508;13.468;2023-08-17T10:03:33;24.30;1.00
8563;DHT22;16392;52.508;13.468;2023-08-17T10:06:04;24.50;1.00
8563;DHT22;16392;52.508;13.468;2023-08-17T10:08:31;24.60;1.00
8563;DHT22;16392;52.508;13.468;2023-08-17T10:10:59;24.70;1.00
8563;DHT22;16392;52.508;13.468;2023-08-17T10:13:33;24.80;1.00
8563;DHT22;16392;52.508;13.468;2023-08-17T10:16:06;24.20;1.00
8563;DHT22;16392;52.508;13.468;2023-08-17T10:18:38;23.80;66.40
8563;DHT22;16392;52.508;13.468;2023-08-17T10:21:13;23.70;99.90
8563;DHT22;16392;52.508;13.468;2023-08-17T10:23:40;23.60;99.90
8563;DHT22;16392;52.508;13.468;2023-08-17T10:26:06;23.60;99.90
8563;DHT22;16392;52.508;13.468;2023-08-17T10:28:34;23.30;99.90
8563;DHT22;16392;52.508;13.468;2023-08-17T10:31:02;23.40;99.90
8563;DHT22;16392;52.508;13.468;2023-08-17T10:33:29;23.20;99.90
8563;DHT22;16392;52.508;13.468;2023-08-17T10:35:56;23.00;99.90
8563;DHT22;16392;52.508;13.468;2023-08-17T10:38:23;23.10;99.90
8563;DHT22;16392;52.508;13.468;2023-08-17T10:41:08;23.00;99.90
8563;DHT22;16392;52.508;13.468;2023-08-17T10:43:34;23.50;99.90
8563;DHT22;16392;52.508;13.468;2023-08-17T10:46:16;24.20;99.90
8563;DHT22;16392;52.508;13.468;2023-08-17T10:48:43;24.50;51.50
8563;DHT22;16392;52.508;13.468;2023-08-17T10:51:10;24.60;34.50
8563;DHT22;16392;52.508;13.468;2023-08-17T10:53:40;25.10;1.00
8563;DHT22;16392;52.508;13.468;2023-08-17T10:56:12;25.10;1.00
8563;DHT22;16392;52.508;13.468;2023-08-17T10:58:39;25.60;1.00
8563;DHT22;16392;52.508;13.468;2023-08-17T11:01:06;25.70;1.00
8563;DHT22;16392;52.508;13.468;2023-08-17T11:03:34;25.80;1.00
8563;DHT22;16392;52.508;13.468;2023-08-17T11:06:15;25.80;1.00
8563;DHT22;16392;52.508;13.468;2023-08-17T11:08:52;25.50;1.00
8563;DHT22;16392;52.508;13.468;2023-08-17T11:11:20;25.90;1.00
8563;DHT22;16392;52.508;13.468;2023-08-17T11:13:48;25.80;1.00
8563;DHT22;16392;52.508;13.468;2023-08-17T11:16:16;25.90;1.00
8563;DHT22;16392;52.508;13.468;2023-08-17T11:18:46;26.20;1.00
8563;DHT22;16392;52.508;13.468;2023-08-17T11:21:14;26.50;1.00
8563;DHT22;16392;52.508;13.468;2023-08-17T11:23:41;26.70;1.00
8563;DHT22;16392;52.508;13.468;2023-08-17T11:26:08;26.80;1.00
8563;DHT22;16392;52.508;13.468;2023-08-17T11:28:35;26.30;1.00
8563;DHT22;16392;52.508;13.468;2023-08-17T11:31:06;25.60;1.00
8563;DHT22;16392;52.508;13.468;2023-08-17T11:33:34;25.60;1.00
8563;DHT22;16392;52.508;13.468;2023-08-17T11:36:04;25.40;1.00
8563;DHT22;16392;52.508;13.468;2023-08-17T11:38:32;25.20;1.00
8563;DHT22;16392;52.508;13.468;2023-08-17T11:40:59;25.30;1.00
8563;DHT22;16392;52.508;13.468;2023-08-17T11:43:27;25.40;1.00
8563;DHT22;16392;52.508;13.468;2023-08-17T11:45:55;25.40;1.00
8563;DHT22;16392;52.508;13.468;2023-08-17T11:48:23;25.30;11.50
8563;DHT22;16392;52.508;13.468;2023-08-17T11:50:49;25.20;21.10
8563;DHT22;16392;52.508;13.468;2023-08-17T11:53:17;25.10;42.20
8563;DHT22;16392;52.508;13.468;2023-08-17T11:55:44;25.40;45.00
8563;DHT22;16392;52.508;13.468;2023-08-17T11:58:11;25.10;55.40
8563;DHT22;16392;52.508;13.468;2023-08-17T12:00:41;25.00;99.90
8563;DHT22;16392;52.508;13.468;2023-08-17T12:03:13;25.20;68.10
8563;DHT22;16392;52.508;13.468;2023-08-17T12:05:41;25.30;77.20
8563;DHT22;16392;52.508;13.468;2023-08-17T12:08:08;25.50;43.70
8563;DHT22;16392;52.508;13.468;2023-08-17T12:10:36;25.60;1.00
8563;DHT22;16392;52.508;13.468;2023-08-17T12:13:03;25.60;1.00
8563;DHT22;16392;52.508;13.468;2023-08-17T12:15:31;25.70;13.30
8563;DHT22;16392;52.508;13.468;2023-08-17T12:17:59;25.70;22.30
8563;DHT22;16392;52.508;13.468;2023-08-17T12:20:27;25.50;72.20
8563;DHT22;16392;52.508;13.468;2023-08-17T12:22:57;25.50;77.10
8563;DHT22;16392;52.508;13.468;2023-08-17T12:25:24;26.00;23.60
8563;DHT22;16392;52.508;13.468;2023-08-17T12:27:52;26.80;1.00
8563;DHT22;16392;52.508;13.468;2023-08-17T12:30:26;27.20;1.00
8563;DHT22;16392;52.508;13.468;2023-08-17T12:32:53;27.80;1.00
8563;DHT22;16392;52.508;13.468;2023-08-17T12:35:19;28.20;1.00
8563;DHT22;16392;52.508;13.468;2023-08-17T12:37:49;28.50;99.90
8563;DHT22;16392;52.508;13.468;2023-08-17T12:40:15;28.60;99.90
8563;DHT22;16392;52.508;13.468;2023-08-17T12:42:42;27.80;99.90
8563;DHT22;16392;52.508;13.468;2023-08-17T12:45:10;27.30;1.00
8563;DHT22;16392;52.508;13.468;2023-08-17T12:47:37;26.90;1.00
8563;DHT22;16392;52.508;13.468;2023-08-17T12:50:04;26.90;1.00
8563;DHT22;16392;52.508;13.468;2023-08-17T12:52:31;27.30;1.00
8563;DHT22;16392;52.508;13.468;2023-08-17T12:54:58;27.20;1.00
8563;DHT22;16392;52.508;13.468;2023-08-17T12:57:24;27.40;1.00
8563;DHT22;16392;52.508;13.468;2023-08-17T12:59:52;27.20;1.00
8563;DHT22;16392;52.508;13.468;2023-08-17T13:02:21;27.30;1.00
8563;DHT22;16392;52.508;13.468;2023-08-17T13:04:47;27.20;1.00
8563;DHT22;16392;52.508;13.468;2023-08-17T13:07:14;26.60;1.00
8563;DHT22;16392;52.508;13.468;2023-08-17T13:09:41;26.80;1.00
8563;DHT22;16392;52.508;13.468;2023-08-17T13:12:08;27.20;1.00
8563;DHT22;16392;52.508;13.468;2023-08-17T13:14:34;27.60;1.00
8563;DHT22;16392;52.508;13.468;2023-08-17T13:17:01;27.60;99.90
8563;DHT22;16392;52.508;13.468;2023-08-17T13:19:28;28.20;99.90
8563;DHT22;16392;52.508;13.468;2023-08-17T13:21:55;28.40;1.00
8563;DHT22;16392;52.508;13.468;2023-08-17T13:24:22;27.80;99.90
8563;DHT22;16392;52.508;13.468;2023-08-17T13:26:48;27.90;99.90
8563;DHT22;16392;52.508;13.468;2023-08-17T13:29:18;28.00;99.90
8563;DHT22;16392;52.508;13.468;2023-08-17T13:31:46;27.70;99.90
8563;DHT22;16392;52.508;13.468;2023-08-17T13:34:13;27.70;99.90
8563;DHT22;16392;52.508;13.468;2023-08-17T13:36:41;27.70;99.90
8563;DHT22;16392;52.508;13.468;2023-08-17T13:39:07;28.30;1.00
8563;DHT22;16392;52.508;13.468;2023-08-17T13:41:34;28.10;1.00
8563;DHT22;16392;52.508;13.468;2023-08-17T13:44:00;27.90;99.90
8563;DHT22;16392;52.508;13.468;2023-08-17T13:46:27;28.10;76.70
8563;DHT22;16392;52.508;13.468;2023-08-17T13:48:54;28.60;1.00
8563;DHT22;16392;52.508;13.468;2023-08-17T13:51:21;28.40;1.00
8563;DHT22;16392;52.508;13.468;2023-08-17T13:53:48;28.20;99.90
8563;DHT22;16392;52.508;13.468;2023-08-17T13:56:27;28.30;1.00
8563;DHT22;16392;52.508;13.468;2023-08-17T13:58:54;28.80;1.00
8563;DHT22;16392;52.508;13.468;2023-08-17T14:01:20;28.70;1.00
8563;DHT22;16392;52.508;13.468;2023-08-17T14:03:47;28.20;1.00
8563;DHT22;16392;52.508;13.468;2023-08-17T14:06:14;28.40;1.00
8563;DHT22;16392;52.508;13.468;2023-08-17T14:08:41;28.60;99.90
8563;DHT22;16392;52.508;13.468;2023-08-17T14:11:09;28.30;1.00
8563;DHT22;16392;52.508;13.468;2023-08-17T14:13:35;28.20;1.00
8563;DHT22;16392;52.508;13.468;2023-08-17T14:16:03;28.50;1.00
8563;DHT22;16392;52.508;13.468;2023-08-17T14:18:30;28.40;1.00
8563;DHT22;16392;52.508;13.468;2023-08-17T14:20:57;27.90;1.00
8563;DHT22;16392;52.508;13.468;2023-08-17T14:23:24;28.10;1.00
8563;DHT22;16392;52.508;13.468;2023-08-17T14:25:50;28.40;1.00
8563;DHT22;16392;52.508;13.468;2023-08-17T14:28:19;28.30;1.00
8563;DHT22;16392;52.508;13.468;2023-08-17T14:30:45;28.00;1.00
8563;DHT22;16392;52.508;13.468;2023-08-17T14:33:12;27.80;99.90
8563;DHT22;16392;52.508;13.468;2023-08-17T14:35:39;28.40;1.00
8563;DHT22;16392;52.508;13.468;2023-08-17T14:38:06;28.80;99.90
8563;DHT22;16392;52.508;13.468;2023-08-17T14:40:34;29.00;1.00
8563;DHT22;16392;52.508;13.468;2023-08-17T14:43:01;29.20;99.90
8563;DHT22;16392;52.508;13.468;2023-08-17T14:45:29;28.50;99.90
8563;DHT22;16392;52.508;13.468;2023-08-17T14:47:55;28.00;1.00
8563;DHT22;16392;52.508;13.468;2023-08-17T14:50:24;27.60;99.90
8563;DHT22;16392;52.508;13.468;2023-08-17T14:52:51;27.20;1.00
8563;DHT22;16392;52.508;13.468;2023-08-17T14:55:17;27.20;1.00
8563;DHT22;16392;52.508;13.468;2023-08-17T14:57:44;27.40;1.00
8563;DHT22;16392;52.508;13.468;2023-08-17T15:00:11;27.30;1.00
8563;DHT22;16392;52.508;13.468;2023-08-17T15:02:39;27.30;1.00
8563;DHT22;16392;52.508;13.468;2023-08-17T15:05:07;27.00;1.00
8563;DHT22;16392;52.508;13.468;2023-08-17T15:07:33;26.80;1.00
8563;DHT22;16392;52.508;13.468;2023-08-17T15:10:00;26.70;1.00
8563;DHT22;16392;52.508;13.468;2023-08-17T15:12:26;26.90;1.00
8563;DHT22;16392;52.508;13.468;2023-08-17T15:14:53;27.00;1.00
8563;DHT22;16392;52.508;13.468;2023-08-17T15:17:20;27.20;1.00
8563;DHT22;16392;52.508;13.468;2023-08-17T15:19:47;27.30;1.00
8563;DHT22;16392;52.508;13.468;2023-08-17T15:22:14;27.20;1.00
8563;DHT22;16392;52.508;13.468;2023-08-17T15:24:41;27.20;1.00
8563;DHT22;16392;52.508;13.468;2023-08-17T15:27:08;27.20;1.00
8563;DHT22;16392;52.508;13.468;2023-08-17T15:29:35;27.20;1.00
8563;DHT22;16392;52.508;13.468;2023-08-17T15:32:02;27.30;99.90
8563;DHT22;16392;52.508;13.468;2023-08-17T15:34:28;27.20;1.00
8563;DHT22;16392;52.508;13.468;2023-08-17T15:36:56;27.10;1.00